Time;durP1;ratioP1;P1;durP2;ratioP2;P2;SDS_P1;SDS_P2;PMS_P1;PMS_P2;Temp;Humidity;BMP_temperature;BMP_pressure;BME280_temperature;BME280_humidity;BME280_pressure;Samples;Min_cycle;Max_cycle;Signal;HPM_P1;HPM_P2
2022/07/23 00:00:17;;;;;;;;;;;;;;;18.14;66.23;99701.69;4922234;29;19931;-66
2022/07/23 00:02:43;;;;;;;;;;;;;;;18.12;65.91;99692.09;4927950;29;19945;-65
2022/07/23 00:05:10;;;;;;;;;;;;;;;18.11;66.05;99696.81;4930280;29;20021;-64
2022/07/23 00:07:36;;;;;;;;;;;;;;;18.14;66.04;99701.69;4929676;29;19931;-65
2022/07/23 00:10:02;;;;;;;;;;;;;;;18.17;66.07;99708.53;4927894;28;19930;-65
2022/07/23 00:12:29;;;;;;;;;;;;;;;18.16;65.97;99698.59;4926352;29;20395;-66
2022/07/23 00:14:54;;;;;;;;;;;;;;;18.14;65.88;99701.69;4924769;29;19935;-65
2022/07/23 00:17:20;;;;;;;;;;;;;;;18.13;66.05;99700.06;4923142;29;19931;-64
2022/07/23 00:19:46;;;;;;;;;;;;;;;18.14;66.33;99698.13;4927343;29;19966;-66
2022/07/23 00:22:13;;;;;;;;;;;;;;;18.14;66.40;99696.16;4905812;29;19950;-65
2022/07/23 00:24:39;;;;;;;;;;;;;;;18.12;66.19;99697.63;4918894;29;19979;-65
2022/07/23 00:27:05;;;;;;;;;;;;;;;18.07;66.84;99700.56;4912695;29;19931;-65
2022/07/23 00:29:31;;;;;;;;;;;;;;;18.06;66.49;99698.94;4913781;29;19938;-65
2022/07/23 00:31:56;;;;;;;;;;;;;;;18.07;66.35;99701.38;4912005;29;19931;-64
2022/07/23 00:34:22;;;;;;;;;;;;;;;18.02;66.49;99696.00;4932224;29;19939;-65
2022/07/23 00:36:48;;;;;;;;;;;;;;;18.00;66.79;99706.56;4933758;29;19938;-66
2022/07/23 00:39:15;;;;;;;;;;;;;;;18.02;66.74;99704.31;4946360;29;19931;-64
2022/07/23 00:41:41;;;;;;;;;;;;;;;17.99;66.79;99708.53;4946398;29;19937;-65
2022/07/23 00:44:16;;;;;;;;;;;;;;;18.00;67.06;99715.69;4934343;29;19931;-66
2022/07/23 00:46:45;;;;;;;;;;;;;;;17.99;66.83;99714.06;4927275;29;19935;-65
2022/07/23 00:49:10;;;;;;;;;;;;;;;17.98;67.07;99703.31;4932179;29;20037;-66
2022/07/23 00:51:36;;;;;;;;;;;;;;;17.97;67.33;99704.44;4935227;29;19962;-65
2022/07/23 00:54:02;;;;;;;;;;;;;;;17.97;67.35;99704.44;4930017;29;19935;-62
2022/07/23 00:56:29;;;;;;;;;;;;;;;17.93;67.41;99698.75;4928853;29;19966;-66
2022/07/23 00:58:55;;;;;;;;;;;;;;;17.89;67.49;99703.31;4946863;29;19990;-64
2022/07/23 01:01:21;;;;;;;;;;;;;;;17.85;67.49;99702.34;4931864;29;19937;-66
2022/07/23 01:03:47;;;;;;;;;;;;;;;17.84;67.92;99693.22;4946975;29;19930;-65
2022/07/23 01:06:13;;;;;;;;;;;;;;;17.81;67.90;99702.19;4926146;29;20114;-66
2022/07/23 01:08:39;;;;;;;;;;;;;;;17.80;68.17;99710.81;4925521;29;19931;-65
2022/07/23 01:11:05;;;;;;;;;;;;;;;17.78;68.05;99708.38;4911969;29;19931;-65
2022/07/23 01:13:32;;;;;;;;;;;;;;;17.77;68.22;99706.75;4912177;29;19938;-65
2022/07/23 01:15:58;;;;;;;;;;;;;;;17.75;68.61;99708.19;4909792;29;19962;-65
2022/07/23 01:18:24;;;;;;;;;;;;;;;17.71;68.42;99706.09;4916479;29;19973;-65
2022/07/23 01:20:50;;;;;;;;;;;;;;;17.72;68.56;99702.19;4931588;29;20413;-66
2022/07/23 01:23:17;;;;;;;;;;;;;;;17.72;68.40;99701.38;4930350;29;20137;-65
2022/07/23 01:25:49;;;;;;;;;;;;;;;17.74;68.44;99701.03;4928077;29;19930;-68
2022/07/23 01:28:15;;;;;;;;;;;;;;;17.71;68.78;99711.63;4914866;29;19934;-66
2022/07/23 01:30:41;;;;;;;;;;;;;;;17.68;68.74;99704.00;4910425;29;19938;-67
2022/07/23 01:33:08;;;;;;;;;;;;;;;17.69;68.93;99704.78;4892557;29;19931;-65
2022/07/23 01:35:34;;;;;;;;;;;;;;;17.70;68.90;99707.22;4911350;29;19931;-65
2022/07/23 01:38:03;;;;;;;;;;;;;;;17.71;68.72;99705.25;4927278;29;19937;-65
2022/07/23 01:40:30;;;;;;;;;;;;;;;17.71;68.88;99706.09;4895562;29;20037;-66
2022/07/23 01:42:56;;;;;;;;;;;;;;;17.71;69.07;99700.56;4892767;29;19985;-65
2022/07/23 01:45:23;;;;;;;;;;;;;;;17.74;69.06;99710.16;4910726;29;19935;-66
2022/07/23 01:47:51;;;;;;;;;;;;;;;17.75;69.19;99710.97;4892639;29;19931;-66
2022/07/23 01:50:17;;;;;;;;;;;;;;;17.75;69.30;99708.19;4911127;29;20391;-65
2022/07/23 01:52:58;;;;;;;;;;;;;;;17.76;68.94;99699.59;4929068;29;20050;-63
2022/07/23 01:55:24;;;;;;;;;;;;;;;17.76;69.17;99710.66;4931208;29;20036;-65
2022/07/23 01:57:51;;;;;;;;;;;;;;;17.76;69.23;99715.34;4929705;29;20647;-67
2022/07/23 02:00:20;;;;;;;;;;;;;;;17.76;69.32;99705.13;4929159;29;19966;-64
2022/07/23 02:02:48;;;;;;;;;;;;;;;17.78;69.42;99704.78;4909999;29;20810;-66
2022/07/23 02:05:14;;;;;;;;;;;;;;;17.78;69.11;99711.13;4909505;29;19938;-64
2022/07/23 02:07:40;;;;;;;;;;;;;;;17.80;69.29;99702.53;4911860;29;19931;-65
2022/07/23 02:10:06;;;;;;;;;;;;;;;17.81;68.86;99693.88;4926933;29;20002;-65
2022/07/23 02:12:32;;;;;;;;;;;;;;;17.85;69.23;99694.84;4920168;29;19935;-65
2022/07/23 02:15:19;;;;;;;;;;;;;;;17.90;68.93;99698.63;4915636;29;20366;-66
2022/07/23 02:17:44;;;;;;;;;;;;;;;17.93;68.76;99701.50;4929435;29;19930;-63
2022/07/23 02:20:11;;;;;;;;;;;;;;;17.98;68.77;99706.06;4927286;29;20311;-65
2022/07/23 02:22:37;;;;;;;;;;;;;;;18.00;68.61;99701.84;4922041;29;20387;-66
2022/07/23 02:25:04;;;;;;;;;;;;;;;18.04;68.70;99698.44;4910109;29;20088;-66
2022/07/23 02:27:29;;;;;;;;;;;;;;;18.07;68.53;99706.09;4907962;29;19934;-65
2022/07/23 02:29:55;;;;;;;;;;;;;;;18.11;68.58;99701.56;4908195;29;19979;-66
2022/07/23 02:32:23;;;;;;;;;;;;;;;18.16;68.58;99703.31;4909205;29;19954;-66
2022/07/23 02:34:48;;;;;;;;;;;;;;;18.20;68.38;99709.84;4895616;29;20375;-66
2022/07/23 02:37:15;;;;;;;;;;;;;;;18.24;68.26;99699.72;4908035;29;19937;-64
2022/07/23 02:39:41;;;;;;;;;;;;;;;18.18;68.23;99688.00;4909049;29;19931;-65
2022/07/23 02:42:07;;;;;;;;;;;;;;;18.31;67.92;99702.78;4908039;29;20412;-64
2022/07/23 02:44:34;;;;;;;;;;;;;;;18.36;67.97;99699.88;4919480;29;19930;-63
2022/07/23 02:47:00;;;;;;;;;;;;;;;18.41;67.65;99696.06;4927789;29;19931;-64
2022/07/23 02:49:27;;;;;;;;;;;;;;;18.46;67.75;99695.09;4926355;29;19931;-65
2022/07/23 02:51:53;;;;;;;;;;;;;;;18.51;67.23;99698.50;4911247;29;20045;-65
2022/07/23 02:54:19;;;;;;;;;;;;;;;18.56;67.20;99698.31;4925985;29;19937;-67
2022/07/23 02:56:45;;;;;;;;;;;;;;;18.62;67.18;99704.47;4928383;29;19935;-66
2022/07/23 02:59:11;;;;;;;;;;;;;;;18.67;66.77;99701.53;4926685;29;19939;-69
2022/07/23 03:01:37;;;;;;;;;;;;;;;18.73;66.80;99709.66;4923792;29;19977;-68
2022/07/23 03:04:03;;;;;;;;;;;;;;;18.78;66.87;99715.84;4930055;29;19962;-66
2022/07/23 03:06:30;;;;;;;;;;;;;;;18.83;66.68;99712.88;4927826;28;20366;-66
2022/07/23 03:08:56;;;;;;;;;;;;;;;18.89;66.47;99707.94;4927744;29;20005;-66
2022/07/23 03:11:22;;;;;;;;;;;;;;;18.93;66.37;99708.09;4925620;29;19934;-65
2022/07/23 03:13:48;;;;;;;;;;;;;;;18.97;66.23;99715.44;4924543;29;19931;-64
2022/07/23 03:16:14;;;;;;;;;;;;;;;19.02;66.30;99706.13;4924942;29;19937;-65
2022/07/23 03:18:39;;;;;;;;;;;;;;;19.07;66.31;99711.50;4909635;29;20359;-64
2022/07/23 03:21:05;;;;;;;;;;;;;;;19.13;65.92;99706.56;4942496;28;19931;-65
2022/07/23 03:23:32;;;;;;;;;;;;;;;19.20;65.70;99717.09;4943318;28;20417;-65
2022/07/23 03:25:58;;;;;;;;;;;;;;;19.26;65.56;99721.31;4928474;29;20304;-63
2022/07/23 03:28:24;;;;;;;;;;;;;;;19.32;65.56;99714.41;4942588;29;19931;-65
2022/07/23 03:30:50;;;;;;;;;;;;;;;19.39;65.12;99723.03;4926499;29;20001;-65
2022/07/23 03:33:19;;;;;;;;;;;;;;;19.45;65.25;99720.88;4924168;29;19931;-65
2022/07/23 03:35:45;;;;;;;;;;;;;;;19.51;65.17;99725.06;4928574;29;19977;-66
2022/07/23 03:38:18;;;;;;;;;;;;;;;19.58;64.82;99720.91;4929060;29;20398;-65
2022/07/23 03:40:45;;;;;;;;;;;;;;;19.66;64.52;99720.06;4909832;29;19937;-65
2022/07/23 03:43:11;;;;;;;;;;;;;;;19.71;64.46;99717.06;4897275;29;19930;-65
2022/07/23 03:45:37;;;;;;;;;;;;;;;19.76;64.14;99721.59;4914258;29;19935;-66
2022/07/23 03:48:04;;;;;;;;;;;;;;;19.80;63.98;99717.81;4928576;29;19994;-66
2022/07/23 03:50:29;;;;;;;;;;;;;;;19.86;63.80;99717.59;4925518;29;20374;-65
2022/07/23 03:52:55;;;;;;;;;;;;;;;19.92;63.66;99724.63;4924766;29;19966;-64
2022/07/23 03:55:21;;;;;;;;;;;;;;;19.99;63.50;99716.53;4910032;29;19953;-64
2022/07/23 03:57:49;;;;;;;;;;;;;;;20.05;63.49;99711.59;4894616;29;19930;-65
2022/07/23 04:00:15;;;;;;;;;;;;;;;20.12;63.19;99722.94;4910758;29;19931;-65
2022/07/23 04:02:42;;;;;;;;;;;;;;;19.93;62.88;99688.19;4925409;29;19931;-66
2022/07/23 04:05:09;;;;;;;;;;;;;;;20.25;62.69;99726.59;4926968;29;19930;-65
2022/07/23 04:07:36;;;;;;;;;;;;;;;20.30;62.52;99725.56;4924904;29;19931;-68
2022/07/23 04:10:02;;;;;;;;;;;;;;;20.35;62.58;99726.13;4914171;29;19979;-65
2022/07/23 04:12:29;;;;;;;;;;;;;;;20.39;62.26;99729.88;4906685;29;20402;-67
2022/07/23 04:14:56;;;;;;;;;;;;;;;20.46;62.15;99726.53;4888063;29;19931;-66
2022/07/23 04:17:22;;;;;;;;;;;;;;;20.52;62.10;99719.59;4905628;29;19966;-65
2022/07/23 04:19:49;;;;;;;;;;;;;;;20.58;61.74;99731.28;4930114;29;19930;-66
2022/07/23 04:22:18;;;;;;;;;;;;;;;20.64;61.70;99729.09;4927080;29;19931;-65
2022/07/23 04:24:43;;;;;;;;;;;;;;;20.71;61.25;99725.75;4926712;29;19937;-66
2022/07/23 04:27:10;;;;;;;;;;;;;;;20.76;60.91;99729.13;4926051;29;19966;-65
2022/07/23 04:29:35;;;;;;;;;;;;;;;20.82;60.77;99727.75;4925955;29;20357;-65
2022/07/23 04:32:03;;;;;;;;;;;;;;;20.90;60.78;99726.03;4926024;29;20029;-65
2022/07/23 04:34:29;;;;;;;;;;;;;;;21.00;60.39;99726.75;4909827;29;20021;-64
2022/07/23 04:36:55;;;;;;;;;;;;;;;21.06;60.01;99720.56;4925712;29;20444;-65
2022/07/23 04:39:22;;;;;;;;;;;;;;;21.13;60.11;99725.56;4907754;29;19977;-65
2022/07/23 04:41:48;;;;;;;;;;;;;;;21.19;59.61;99726.13;4907251;29;20022;-66
2022/07/23 04:44:14;;;;;;;;;;;;;;;21.22;59.58;99719.88;4907565;29;19931;-68
2022/07/23 04:46:41;;;;;;;;;;;;;;;21.18;59.53;99707.84;4905501;29;19931;-67
2022/07/23 04:49:09;;;;;;;;;;;;;;;21.33;59.26;99721.03;4917901;29;19935;-68
2022/07/23 04:51:34;;;;;;;;;;;;;;;21.39;58.87;99722.41;4924904;29;19938;-68
2022/07/23 04:54:00;;;;;;;;;;;;;;;21.44;58.81;99718.56;4924088;29;19934;-69
2022/07/23 04:56:26;;;;;;;;;;;;;;;21.49;58.70;99714.72;4927658;29;20450;-66
2022/07/23 04:58:52;;;;;;;;;;;;;;;21.55;58.59;99716.13;4939348;28;19954;-67
2022/07/23 05:01:18;;;;;;;;;;;;;;;21.48;58.15;99690.88;4925449;29;20389;-68
2022/07/23 05:03:45;;;;;;;;;;;;;;;21.69;57.88;99710.19;4928071;29;19937;-65
2022/07/23 05:06:12;;;;;;;;;;;;;;;21.78;57.53;99710.06;4926107;29;19931;-65
2022/07/23 05:08:38;;;;;;;;;;;;;;;21.85;57.26;99707.47;4927391;29;20445;-65
2022/07/23 05:11:04;;;;;;;;;;;;;;;21.91;57.07;99694.09;4927258;29;19935;-64
2022/07/23 05:13:30;;;;;;;;;;;;;;;22.00;57.21;99694.78;4928611;29;20379;-66
2022/07/23 05:15:56;;;;;;;;;;;;;;;22.09;56.73;99701.00;4928608;29;19935;-66
2022/07/23 05:18:23;;;;;;;;;;;;;;;22.16;56.39;99697.56;4912026;29;19937;-66
2022/07/23 05:20:49;;;;;;;;;;;;;;;22.17;56.34;99696.44;4929442;29;19930;-68
2022/07/23 05:23:20;;;;;;;;;;;;;;;22.22;56.08;99695.34;4945256;29;19970;-66
2022/07/23 05:25:47;;;;;;;;;;;;;;;22.24;56.08;99693.84;4928792;29;19952;-68
2022/07/23 05:28:13;;;;;;;;;;;;;;;22.28;55.71;99705.06;4930045;29;20402;-68
2022/07/23 05:30:39;;;;;;;;;;;;;;;22.37;55.45;99705.69;4940531;28;19931;-68
2022/07/23 05:33:08;;;;;;;;;;;;;;;22.48;55.10;99702.44;4926604;29;19986;-68
2022/07/23 05:35:34;;;;;;;;;;;;;;;22.56;55.05;99697.84;4927360;29;19931;-68
2022/07/23 05:38:27;;;;;;;;;;;;;;;22.59;54.92;99703.53;4927708;29;19935;-66
2022/07/23 05:40:55;;;;;;;;;;;;;;;22.66;54.57;99712.03;4925210;29;19938;-68
2022/07/23 05:43:21;;;;;;;;;;;;;;;22.71;54.53;99708.19;4928784;29;20037;-68
2022/07/23 05:45:46;;;;;;;;;;;;;;;22.79;53.93;99704.41;4927478;29;20161;-66
2022/07/23 05:48:12;;;;;;;;;;;;;;;22.79;53.94;99700.81;4928457;29;19931;-66
2022/07/23 05:50:48;;;;;;;;;;;;;;;22.84;53.97;99705.31;4927065;29;19934;-64
2022/07/23 05:53:24;;;;;;;;;;;;;;;22.92;53.70;99687.56;4897315;29;19937;-65
2022/07/23 05:56:02;;;;;;;;;;;;;;;23.01;53.30;99701.31;4908838;29;19953;-65
2022/07/23 05:58:30;;;;;;;;;;;;;;;23.04;53.23;99695.03;4911406;29;19995;-65
2022/07/23 06:00:56;;;;;;;;;;;;;;;23.06;53.24;99696.28;4909979;29;19931;-65
2022/07/23 06:03:22;;;;;;;;;;;;;;;23.14;53.45;99699.25;4900901;29;19931;-66
2022/07/23 06:05:47;;;;;;;;;;;;;;;23.23;52.97;99694.25;4910763;29;20045;-66
2022/07/23 06:08:13;;;;;;;;;;;;;;;23.29;52.47;99700.41;4892431;29;19938;-65
2022/07/23 06:10:39;;;;;;;;;;;;;;;23.37;52.49;99697.41;4911629;29;19938;-65
2022/07/23 06:13:07;;;;;;;;;;;;;;;23.47;52.32;99692.44;4895341;29;19931;-66
2022/07/23 06:15:33;;;;;;;;;;;;;;;23.56;52.26;99693.00;4928501;29;19934;-66
2022/07/23 06:17:59;;;;;;;;;;;;;;;23.64;51.96;99694.78;4926648;29;20397;-65
2022/07/23 06:20:25;;;;;;;;;;;;;;;23.76;51.80;99690.25;4928020;29;20042;-66
2022/07/23 06:22:51;;;;;;;;;;;;;;;23.90;51.41;99692.50;4928332;29;19937;-65
2022/07/23 06:25:17;;;;;;;;;;;;;;;24.07;51.02;99694.09;4926458;29;20021;-66
2022/07/23 06:27:43;;;;;;;;;;;;;;;24.15;50.73;99698.63;4929367;29;19931;-68
2022/07/23 06:30:15;;;;;;;;;;;;;;;24.33;50.74;99706.50;4927467;29;20040;-67
2022/07/23 06:32:41;;;;;;;;;;;;;;;24.54;50.01;99697.72;4924081;29;19937;-68
2022/07/23 06:35:07;;;;;;;;;;;;;;;24.68;49.90;99687.97;4926487;29;20037;-68
2022/07/23 06:37:33;;;;;;;;;;;;;;;24.81;49.23;99683.81;4943492;29;20021;-66
2022/07/23 06:40:02;;;;;;;;;;;;;;;24.94;49.13;99684.41;4927448;29;20238;-66
2022/07/23 06:42:29;;;;;;;;;;;;;;;25.00;48.90;99694.09;4928102;29;20021;-68
2022/07/23 06:44:58;;;;;;;;;;;;;;;25.08;48.51;99678.25;4929190;29;19935;-66
2022/07/23 06:47:25;;;;;;;;;;;;;;;25.17;48.59;99681.56;4891196;29;19930;-68
2022/07/23 06:49:51;;;;;;;;;;;;;;;25.31;48.03;99683.75;4921258;29;19934;-68
2022/07/23 06:52:16;;;;;;;;;;;;;;;25.46;47.59;99679.16;4927669;29;19941;-66
2022/07/23 06:54:42;;;;;;;;;;;;;;;25.56;47.18;99683.31;4927935;29;20410;-69
2022/07/23 06:57:08;;;;;;;;;;;;;;;25.60;47.52;99678.59;4926576;29;20386;-65
2022/07/23 06:59:36;;;;;;;;;;;;;;;25.67;47.48;99679.84;4927577;29;20394;-65
2022/07/23 07:02:01;;;;;;;;;;;;;;;25.76;47.15;99681.16;4928516;29;20416;-66
2022/07/23 07:04:29;;;;;;;;;;;;;;;25.82;46.59;99678.81;4912826;29;19935;-67
2022/07/23 07:06:54;;;;;;;;;;;;;;;25.83;46.70;99682.41;4926731;29;19931;-66
2022/07/23 07:09:21;;;;;;;;;;;;;;;25.93;46.93;99678.94;4929360;29;19953;-65
2022/07/23 07:11:47;;;;;;;;;;;;;;;26.17;46.60;99676.81;4925384;29;19978;-64
2022/07/23 07:14:12;;;;;;;;;;;;;;;26.36;45.96;99677.81;4927768;29;19935;-65
2022/07/23 07:16:38;;;;;;;;;;;;;;;26.47;45.12;99673.91;4927995;29;19937;-66
2022/07/23 07:19:04;;;;;;;;;;;;;;;26.43;44.63;99675.88;4911204;29;20037;-67
2022/07/23 07:21:31;;;;;;;;;;;;;;;26.44;44.81;99673.88;4928017;29;20279;-65
2022/07/23 07:23:57;;;;;;;;;;;;;;;26.52;44.38;99671.94;4930259;29;19935;-64
2022/07/23 07:26:23;;;;;;;;;;;;;;;26.64;44.13;99668.06;4922267;29;19931;-66
2022/07/23 07:28:48;;;;;;;;;;;;;;;26.78;43.61;99667.34;4906246;29;19937;-65
2022/07/23 07:31:14;;;;;;;;;;;;;;;27.01;42.90;99667.16;4907963;29;19954;-68
2022/07/23 07:33:40;;;;;;;;;;;;;;;27.16;42.99;99676.44;4910982;29;20333;-68
2022/07/23 07:36:06;;;;;;;;;;;;;;;27.50;42.52;99676.25;4924155;29;19931;-66
2022/07/23 07:38:33;;;;;;;;;;;;;;;27.71;42.06;99671.94;4928274;29;19941;-66
2022/07/23 07:40:59;;;;;;;;;;;;;;;27.82;41.95;99678.41;4926617;29;20247;-67
2022/07/23 07:43:25;;;;;;;;;;;;;;;27.73;41.70;99675.97;4926645;29;19939;-66
2022/07/23 07:45:50;;;;;;;;;;;;;;;27.39;42.67;99676.16;4926481;28;19931;-67
2022/07/23 07:48:16;;;;;;;;;;;;;;;27.03;43.35;99676.78;4940426;29;19935;-68
2022/07/23 07:50:42;;;;;;;;;;;;;;;27.19;42.69;99678.50;4942807;29;19930;-67
2022/07/23 07:53:08;;;;;;;;;;;;;;;27.58;41.58;99669.47;4927217;29;19935;-67
2022/07/23 07:55:35;;;;;;;;;;;;;;;27.88;40.33;99674.00;4928375;29;19941;-68
2022/07/23 07:58:01;;;;;;;;;;;;;;;28.25;39.63;99688.97;4927463;29;19934;-67
2022/07/23 08:00:27;;;;;;;;;;;;;;;28.03;40.56;99682.47;4927997;29;19956;-68
2022/07/23 08:02:53;;;;;;;;;;;;;;;27.56;41.45;99680.31;4928522;29;19937;-65
2022/07/23 08:05:20;;;;;;;;;;;;;;;27.34;41.92;99682.16;4928425;29;20363;-65
2022/07/23 08:07:46;;;;;;;;;;;;;;;27.71;41.18;99677.56;4929389;29;20464;-64
2022/07/23 08:10:12;;;;;;;;;;;;;;;28.27;40.05;99671.72;4925200;29;19930;-67
2022/07/23 08:12:39;;;;;;;;;;;;;;;28.65;39.35;99680.56;4920273;28;19982;-66
2022/07/23 08:15:06;;;;;;;;;;;;;;;28.45;39.41;99680.16;4898617;29;19934;-65
2022/07/23 08:17:31;;;;;;;;;;;;;;;28.07;39.87;99679.69;4923791;29;19934;-65
2022/07/23 08:19:57;;;;;;;;;;;;;;;27.84;40.43;99678.00;4922472;29;19931;-65
2022/07/23 08:22:23;;;;;;;;;;;;;;;27.85;39.95;99680.41;4924480;29;20029;-66
2022/07/23 08:24:49;;;;;;;;;;;;;;;27.48;40.65;99675.03;4916859;29;19987;-66
2022/07/23 08:27:14;;;;;;;;;;;;;;;27.04;41.33;99675.59;4582291;29;10000377;-65
2022/07/23 08:29:41;;;;;;;;;;;;;;;26.84;41.97;99671.38;4918332;29;19930;-66
2022/07/23 08:32:07;;;;;;;;;;;;;;;26.85;42.02;99676.63;4915980;29;20030;-67
2022/07/23 08:34:33;;;;;;;;;;;;;;;28.06;40.13;99676.06;4923893;29;19937;-66
2022/07/23 08:36:58;;;;;;;;;;;;;;;29.46;37.48;99670.03;4923772;29;20410;-67
2022/07/23 08:39:24;;;;;;;;;;;;;;;30.42;34.80;99673.53;4921602;29;20428;-67
2022/07/23 08:41:50;;;;;;;;;;;;;;;30.37;34.90;99670.38;4923886;29;19990;-68
2022/07/23 08:44:16;;;;;;;;;;;;;;;29.80;35.70;99667.44;4927463;29;19931;-66
2022/07/23 08:46:44;;;;;;;;;;;;;;;29.38;36.43;99669.22;4927496;29;19930;-68
2022/07/23 08:49:10;;;;;;;;;;;;;;;28.89;37.38;99663.31;4928274;29;20230;-66
2022/07/23 08:51:36;;;;;;;;;;;;;;;29.58;36.54;99666.75;4942171;29;20288;-67
2022/07/23 08:54:02;;;;;;;;;;;;;;;30.72;34.62;99651.56;4909405;29;19938;-68
2022/07/23 08:56:28;;;;;;;;;;;;;;;31.48;33.41;99647.16;4927548;29;19946;-69
2022/07/23 08:58:54;;;;;;;;;;;;;;;32.04;31.69;99644.00;4928678;29;19931;-67
2022/07/23 09:01:20;;;;;;;;;;;;;;;32.65;31.04;99647.91;4926129;29;20690;-67
2022/07/23 09:03:47;;;;;;;;;;;;;;;33.03;30.27;99649.69;4923714;29;20030;-67
2022/07/23 09:06:13;;;;;;;;;;;;;;;33.36;29.74;99647.00;4922118;29;19931;-67
2022/07/23 09:08:40;;;;;;;;;;;;;;;33.62;28.95;99646.50;4929743;28;19994;-68
2022/07/23 09:11:08;;;;;;;;;;;;;;;34.15;28.62;99655.06;4932145;29;19937;-64
2022/07/23 09:13:37;;;;;;;;;;;;;;;34.49;27.59;99650.16;4930853;28;20029;-66
2022/07/23 09:16:04;;;;;;;;;;;;;;;34.87;27.47;99640.31;4932464;29;19937;-65
2022/07/23 09:18:31;;;;;;;;;;;;;;;35.14;26.90;99645.69;4931975;29;19997;-65
2022/07/23 09:21:09;;;;;;;;;;;;;;;35.16;26.17;99642.38;4933417;29;20414;-67
2022/07/23 09:23:38;;;;;;;;;;;;;;;35.20;25.80;99638.22;4931830;29;19930;-65
2022/07/23 09:26:16;;;;;;;;;;;;;;;35.26;25.85;99631.97;4930885;28;19930;-66
2022/07/23 09:28:49;;;;;;;;;;;;;;;35.18;25.98;99637.06;4931671;29;19930;-67
2022/07/23 09:31:15;;;;;;;;;;;;;;;35.42;26.08;99643.25;4926524;29;19930;-65
2022/07/23 09:33:41;;;;;;;;;;;;;;;35.49;25.75;99631.69;4913617;29;19979;-66
2022/07/23 09:36:09;;;;;;;;;;;;;;;35.85;25.38;99631.88;4896303;29;19931;-66
2022/07/23 09:38:47;;;;;;;;;;;;;;;35.61;25.01;99638.66;4914469;29;20183;-66
2022/07/23 09:41:13;;;;;;;;;;;;;;;35.20;25.18;99629.69;4911539;29;19939;-65
2022/07/23 09:43:39;;;;;;;;;;;;;;;35.58;25.12;99628.22;4916895;29;19931;-65
2022/07/23 09:46:16;;;;;;;;;;;;;;;36.26;24.61;99633.03;4928639;29;19963;-65
2022/07/23 09:48:42;;;;;;;;;;;;;;;37.03;23.82;99629.19;4928693;29;20022;-66
2022/07/23 09:51:09;;;;;;;;;;;;;;;37.45;22.89;99630.13;4925302;29;20459;-66
2022/07/23 09:53:35;;;;;;;;;;;;;;;37.46;22.87;99626.78;4933430;29;19931;-65
2022/07/23 09:56:02;;;;;;;;;;;;;;;36.83;23.41;99620.94;4931400;29;19937;-66
2022/07/23 09:58:28;;;;;;;;;;;;;;;35.68;24.59;99626.28;4929121;29;19953;-66
2022/07/23 10:00:55;;;;;;;;;;;;;;;35.21;25.33;99627.66;4910722;29;19931;-66
2022/07/23 10:03:21;;;;;;;;;;;;;;;33.92;26.87;99616.28;4930905;29;20355;-67
2022/07/23 10:06:17;;;;;;;;;;;;;;;32.84;28.51;99624.94;4929524;29;19931;-64
2022/07/23 10:09:23;;;;;;;;;;;;;;;31.76;30.09;99619.75;4908269;29;19931;-66
2022/07/23 10:15:00;;;;;;;;;;;;;;;32.38;29.26;99619.66;4909115;29;19968;-65
2022/07/23 10:17:27;;;;;;;;;;;;;;;32.46;28.55;99614.69;4907313;29;19931;-65
2022/07/23 10:19:52;;;;;;;;;;;;;;;31.83;29.48;99609.16;4889601;29;20031;-64
2022/07/23 10:22:22;;;;;;;;;;;;;;;31.74;29.75;99611.69;4910271;29;19931;-65
2022/07/23 10:24:52;;;;;;;;;;;;;;;32.45;29.37;99613.91;4909963;29;20377;-66
2022/07/23 10:27:31;;;;;;;;;;;;;;;34.00;27.47;99616.94;4894939;29;19931;-65
2022/07/23 10:30:00;;;;;;;;;;;;;;;35.57;25.62;99603.06;4909247;29;19981;-66
2022/07/23 10:32:31;;;;;;;;;;;;;;;36.90;23.49;99602.78;4909077;29;19931;-65
2022/07/23 10:35:03;;;;;;;;;;;;;;;38.03;22.07;99605.09;4908800;29;19931;-66
2022/07/23 10:37:34;;;;;;;;;;;;;;;38.68;21.45;99596.69;4909977;29;20075;-66
2022/07/23 10:40:10;;;;;;;;;;;;;;;39.28;20.61;99594.41;4915013;29;19973;-65
2022/07/23 10:42:37;;;;;;;;;;;;;;;39.27;19.89;99594.88;4921080;29;20428;-64
2022/07/23 10:45:18;;;;;;;;;;;;;;;39.51;19.69;99586.44;4928902;29;20105;-65
2022/07/23 10:47:44;;;;;;;;;;;;;;;39.83;19.91;99584.09;4910698;29;20209;-66
2022/07/23 10:50:20;;;;;;;;;;;;;;;40.26;19.37;99578.28;4908896;29;20404;-65
2022/07/23 10:53:00;;;;;;;;;;;;;;;39.09;19.98;99579.38;4908935;29;19931;-64
2022/07/23 10:55:40;;;;;;;;;;;;;;;39.19;20.34;99565.84;4891346;29;19938;-65
2022/07/23 10:58:07;;;;;;;;;;;;;;;39.33;20.16;99566.47;4926573;29;19974;-65
2022/07/23 11:00:33;;;;;;;;;;;;;;;39.33;19.96;99561.50;4929326;29;20394;-64
2022/07/23 11:02:59;;;;;;;;;;;;;;;39.81;19.54;99554.38;4929794;29;20029;-65
2022/07/23 11:05:26;;;;;;;;;;;;;;;39.94;19.56;99554.19;4927672;29;20033;-66
2022/07/23 11:08:14;;;;;;;;;;;;;;;40.08;19.72;99558.38;4927556;29;20041;-64
2022/07/23 11:10:43;;;;;;;;;;;;;;;39.93;19.60;99561.19;4924471;29;20411;-67
2022/07/23 11:13:27;;;;;;;;;;;;;;;40.10;19.63;99562.34;4931537;29;19968;-66
2022/07/23 11:16:12;;;;;;;;;;;;;;;41.04;18.58;99556.66;4927472;29;19934;-65
2022/07/23 11:19:08;;;;;;;;;;;;;;;42.07;18.04;99555.50;4928442;29;20330;-66
2022/07/23 11:21:47;;;;;;;;;;;;;;;42.43;17.58;99553.31;4584317;28;10000337;-64
2022/07/23 11:24:14;;;;;;;;;;;;;;;42.57;16.54;99550.91;4920220;29;19969;-66
2022/07/23 11:26:45;;;;;;;;;;;;;;;41.23;17.93;99551.56;4923317;29;20313;-65
2022/07/23 11:29:35;;;;;;;;;;;;;;;40.80;18.05;99556.75;4939100;29;19942;-66
2022/07/23 11:32:03;;;;;;;;;;;;;;;40.91;18.44;99550.47;4925435;29;19926;-65
2022/07/23 11:34:30;;;;;;;;;;;;;;;41.43;17.71;99555.00;4925514;29;19935;-65
2022/07/23 11:36:56;;;;;;;;;;;;;;;40.88;18.15;99545.69;4923902;29;19930;-65
2022/07/23 11:39:24;;;;;;;;;;;;;;;40.44;18.49;99556.56;4921845;29;19938;-65
2022/07/23 11:41:51;;;;;;;;;;;;;;;39.99;18.58;99557.16;4925240;29;19931;-65
2022/07/23 11:44:27;;;;;;;;;;;;;;;39.95;18.77;99547.94;4923109;29;19937;-66
2022/07/23 11:46:56;;;;;;;;;;;;;;;40.43;18.72;99551.34;4923545;29;19970;-63
2022/07/23 11:49:22;;;;;;;;;;;;;;;40.34;18.49;99544.38;4922748;29;19944;-65
2022/07/23 11:52:02;;;;;;;;;;;;;;;40.91;18.70;99539.00;4923696;28;20436;-65
2022/07/23 11:54:27;;;;;;;;;;;;;;;41.23;18.06;99533.59;4918027;29;20402;-65
2022/07/23 11:56:58;;;;;;;;;;;;;;;40.65;18.83;99543.16;4904965;29;19931;-66
2022/07/23 11:59:24;;;;;;;;;;;;;;;38.51;20.57;99544.78;4923150;29;19934;-64
2022/07/23 12:01:56;;;;;;;;;;;;;;;38.66;20.61;99535.59;4924261;29;19930;-65
2022/07/23 12:04:22;;;;;;;;;;;;;;;39.85;19.45;99543.59;4922130;29;20422;-68
2022/07/23 12:06:47;;;;;;;;;;;;;;;40.64;18.97;99532.22;4925334;28;19938;-65
2022/07/23 12:09:13;;;;;;;;;;;;;;;40.80;18.20;99523.19;4919825;29;19939;-67
2022/07/23 12:11:55;;;;;;;;;;;;;;;40.47;18.85;99531.88;4923258;29;19990;-66
2022/07/23 12:14:23;;;;;;;;;;;;;;;40.66;18.44;99521.84;4924818;29;19958;-66
2022/07/23 12:17:06;;;;;;;;;;;;;;;40.64;18.57;99509.31;4942114;29;19938;-65
2022/07/23 12:19:32;;;;;;;;;;;;;;;40.81;18.20;99519.03;4924205;29;19935;-66
2022/07/23 12:21:57;;;;;;;;;;;;;;;40.93;18.19;99522.09;4922774;29;20325;-66
2022/07/23 12:24:23;;;;;;;;;;;;;;;41.29;18.17;99513.59;4922094;29;19930;-69
2022/07/23 12:27:04;;;;;;;;;;;;;;;40.89;18.24;99512.91;4915196;29;19938;-68
2022/07/23 12:29:35;;;;;;;;;;;;;;;38.30;20.75;99518.75;4921786;29;19978;-68
2022/07/23 12:32:02;;;;;;;;;;;;;;;36.33;22.96;99510.44;4924083;29;19937;-69
2022/07/23 12:34:28;;;;;;;;;;;;;;;36.28;23.27;99515.91;4928111;29;20048;-66
2022/07/23 12:36:53;;;;;;;;;;;;;;;36.74;22.76;99515.53;4924178;29;20026;-68
2022/07/23 12:39:29;;;;;;;;;;;;;;;37.50;21.96;99515.50;4922734;29;20033;-65
2022/07/23 12:41:56;;;;;;;;;;;;;;;37.84;21.52;99510.09;4925500;29;19931;-64
2022/07/23 12:44:22;;;;;;;;;;;;;;;38.19;20.69;99504.16;4923403;29;20421;-66
2022/07/23 12:46:51;;;;;;;;;;;;;;;39.29;19.80;99498.84;4924956;29;19931;-66
2022/07/23 12:49:25;;;;;;;;;;;;;;;39.25;19.73;99506.00;4924645;28;19941;-66
2022/07/23 12:51:51;;;;;;;;;;;;;;;37.33;21.38;99503.56;4923496;29;19931;-67